Etusivu
METAR-TAF:

METAR-TAF

Lentoasemat :

Lappeenrannan lentoasema

Lappeenranta, Suomi

Leveyspiiri: 61-02-45N, Pituuspiiri: 028-08-55E, korkeus merenpinnasta: 106 m

Tämänhetkinen sää

Tämä raportti tehtiin 28 minuuttia sitten, kello 13.20 UTC
Tuuli 4 kn eri suunnista
Lämpötila 20°C
Kosteus 30%
Ilmanpaine 1024 hPa
Näkyvyys 10 km tai enemmän
ei pilviä alle 1500 m:ssä eikä cumulonimbus-pilviä

METAR: EFLP 201320Z AUTO VRB04KT CAVOK 20/02 Q1024

Aika: 16:48 (13:48 UTC)

Sääennuste

Tämä raportti tehtiin 23 tuntia ja 22 minuuttia sitten, kello 14.26 UTC
Ennuste voimassa 19. päivästä klo 15 UTC - 19. päivään klo 18 UTC
Tuuli 9 kn pohjoisesta/koillisesta
Näkyvyys 10 km tai enemmän
ei pilviä alle 1500 m:ssä eikä cumulonimbus-pilviä

TAF: EFLP 191426Z 1915/1918 02009KT CAVOK

Säähavainnot ja -ennusteet yli 4000 lentoasemalta (METAR- ja TAF-raportit).

Käytössä olevat sääasemat on merkitty karttaan keltaisilla ja punaisilla pisteillä.

Aseta hiiri pisteen päälle nähdäksesi sääaseman nimen.

Klikkaa sitten nähdäksesi säähavainnot ja -ennusteet.

Kartan vaihtaminen: klikkaa mustalla rastilla varustettuja vihreitä pisteitä, niin voit zoomata sisään; viivalla varustettua vihreää pistettä, niin voit zoomata ulos tai vihreitä nuolia, niin pääset viereisille kartoille.


METAR-TAF: